createdAt,value
2023-02-27T00:16:32.181Z,-0.1
2023-02-27T00:56:34.706Z,-0.4
2023-02-27T01:06:42.710Z,-0.4
2023-02-27T01:16:36.663Z,-0.4
2023-02-27T01:26:43.849Z,-0.4
2023-02-27T01:36:37.730Z,-0.5
2023-02-27T02:06:47.109Z,-0.7
2023-02-27T02:16:40.593Z,-0.8
2023-02-27T02:36:41.613Z,-0.8
2023-02-27T02:46:48.701Z,-0.9
2023-02-27T03:16:43.986Z,-1.1
2023-02-27T03:26:52.516Z,-142.3
2023-02-27T03:46:53.671Z,-1.6
2023-02-27T04:06:55.255Z,-1.8
2023-02-27T04:26:48.978Z,-2.1
2023-02-27T04:36:49.294Z,-2
2023-02-27T04:56:51.719Z,-106.6
2023-02-27T05:06:59.564Z,-2.1
2023-02-27T05:16:53.242Z,-2.1
2023-02-27T05:56:55.618Z,-2.3
2023-02-27T06:37:04.443Z,-2.1
2023-02-27T07:17:14.544Z,192.7
2023-02-27T07:57:18.858Z,192.7
2023-02-27T08:07:19.188Z,192.7
2023-02-27T08:27:20.290Z,192.7
2023-02-27T08:47:15.188Z,192.7
2023-02-27T09:07:18.753Z,192.7
2023-02-27T09:27:19.296Z,192.7
2023-02-27T09:47:13.312Z,192.7
2023-02-27T10:27:23.660Z,192.7
2023-02-27T10:47:25.754Z,192.7
2023-02-27T10:57:26.964Z,192.7
2023-02-27T11:07:28.079Z,192.7
2023-02-27T11:17:29.428Z,192.7
2023-02-27T11:27:30.455Z,192.7
2023-02-27T11:47:39.434Z,192.7
2023-02-27T11:57:40.539Z,192.7
2023-02-27T12:07:27.150Z,192.7
2023-02-27T12:27:35.718Z,192.7
2023-02-27T13:07:45.536Z,192.7
2023-02-27T13:27:33.071Z,192.7
2023-02-27T13:37:34.256Z,192.7
2023-02-27T13:47:41.935Z,192.7
2023-02-27T13:57:35.908Z,192.7
2023-02-27T14:07:37.125Z,192.7
2023-02-27T14:17:44.812Z,192.7
2023-02-27T14:27:45.752Z,192.7
2023-02-27T14:47:40.151Z,192.7
2023-02-27T15:07:49.219Z,192.7
2023-02-27T15:17:49.660Z,192.7
2023-02-27T15:27:43.153Z,192.7
2023-02-27T15:37:44.222Z,192.7
2023-02-27T15:47:51.770Z,192.7
2023-02-27T16:07:53.694Z,192.7
2023-02-27T16:17:54.760Z,192.7
2023-02-27T16:47:57.440Z,192.7
2023-02-27T16:48:09.884Z,192.7
2023-02-27T16:58:18.059Z,192.7
2023-02-27T17:38:21.655Z,192.7
2023-02-27T17:58:16.648Z,192.7
2023-02-27T18:08:17.158Z,192.7
2023-02-27T18:18:17.912Z,192.7
2023-02-27T18:38:33.938Z,192.7
2023-02-27T18:48:20.431Z,192.7
2023-02-27T18:58:21.593Z,192.7
2023-02-27T19:18:30.082Z,192.7
2023-02-27T19:38:31.213Z,192.7
2023-02-27T19:48:24.908Z,192.7
2023-02-27T19:58:32.554Z,192.7
2023-02-27T20:18:27.204Z,192.7
2023-02-27T20:38:42.362Z,192.7
2023-02-27T20:48:29.607Z,192.7
2023-02-27T20:58:37.801Z,192.7
2023-02-27T21:08:31.529Z,192.7
2023-02-27T21:18:39.161Z,192.7
2023-02-27T21:38:34.084Z,192.7
2023-02-27T21:58:42.852Z,192.7
2023-02-27T22:18:44.529Z,192.7
2023-02-27T22:38:45.707Z,192.7
2023-02-27T22:58:47.253Z,192.7
2023-02-27T23:18:41.561Z,192.7
2023-02-27T23:38:50.344Z,192.7
2023-02-27T23:58:51.461Z,192.7
